createdAt,value
2024-02-04T00:02:10.764Z,6.48
2024-02-04T00:04:37.723Z,6.61
2024-02-04T00:07:04.867Z,6.64
2024-02-04T00:09:34.515Z,6.26
2024-02-04T00:12:05.066Z,6.38
2024-02-04T00:14:32.011Z,6.54
2024-02-04T00:16:58.701Z,6.28
2024-02-04T00:19:25.783Z,6.38
2024-02-04T00:21:52.583Z,5.91
2024-02-04T00:24:22.817Z,6.20
2024-02-04T00:26:49.836Z,6.20
2024-02-04T00:29:16.552Z,6.20
2024-02-04T00:31:43.851Z,6.32
2024-02-04T00:34:10.819Z,6.25
2024-02-04T00:36:37.866Z,6.07
2024-02-04T00:39:05.008Z,6.27
2024-02-04T00:41:31.879Z,6.34
2024-02-04T00:43:58.580Z,6.41
2024-02-04T00:46:25.364Z,6.34
2024-02-04T00:48:52.426Z,6.49
2024-02-04T00:51:21.038Z,6.22
2024-02-04T00:53:47.974Z,6.34
2024-02-04T00:56:14.810Z,6.26
2024-02-04T00:58:41.777Z,6.03
2024-02-04T01:01:08.852Z,6.13
2024-02-04T01:03:35.862Z,6.18
2024-02-04T01:06:02.808Z,6.25
2024-02-04T01:08:29.627Z,6.21
2024-02-04T01:10:56.788Z,5.86
2024-02-04T01:13:23.544Z,6.01
2024-02-04T01:15:50.365Z,6.02
2024-02-04T01:18:17.136Z,6.00
2024-02-04T01:20:43.959Z,6.01
2024-02-04T01:23:10.636Z,6.13
2024-02-04T01:25:39.914Z,5.96
2024-02-04T01:28:08.531Z,5.95
2024-02-04T01:30:35.328Z,5.89
2024-02-04T01:33:02.208Z,5.83
2024-02-04T01:35:29.069Z,5.75
2024-02-04T01:37:55.987Z,5.71
2024-02-04T01:40:22.828Z,5.85
2024-02-04T01:42:49.731Z,6.02
2024-02-04T01:45:16.661Z,6.07
2024-02-04T01:47:43.974Z,5.58
2024-02-04T01:50:11.905Z,5.81
2024-02-04T01:52:41.487Z,5.76
2024-02-04T01:55:09.011Z,5.82
2024-02-04T01:57:38.678Z,5.96
2024-02-04T02:00:06.470Z,5.95
2024-02-04T02:02:35.488Z,6.09
2024-02-04T02:05:02.617Z,5.96
2024-02-04T02:07:29.639Z,6.06
2024-02-04T02:09:56.678Z,5.63
2024-02-04T02:12:27.190Z,5.85
2024-02-04T02:15:02.334Z,6.00
2024-02-04T02:18:01.402Z,5.81
2024-02-04T02:20:55.160Z,5.67
2024-02-04T02:23:31.660Z,5.59
2024-02-04T02:26:00.396Z,5.74
2024-02-04T02:28:27.184Z,5.86
2024-02-04T02:30:53.974Z,5.84
2024-02-04T02:33:21.054Z,5.80
2024-02-04T02:35:54.782Z,5.88
2024-02-04T02:38:45.114Z,5.65
2024-02-04T02:41:14.395Z,5.71
2024-02-04T02:43:42.471Z,5.84
2024-02-04T02:46:09.530Z,5.67
2024-02-04T02:48:36.868Z,5.56
2024-02-04T02:51:03.835Z,5.46
2024-02-04T02:53:32.844Z,5.60
2024-02-04T02:56:02.583Z,5.52
2024-02-04T02:58:29.314Z,5.53
2024-02-04T03:00:56.090Z,5.64
2024-02-04T03:03:23.014Z,5.44
2024-02-04T03:05:49.882Z,5.49
2024-02-04T03:08:17.964Z,5.30
2024-02-04T03:10:44.662Z,5.29
2024-02-04T03:13:15.101Z,5.44
2024-02-04T03:15:46.829Z,5.53
2024-02-04T03:18:13.738Z,5.44
2024-02-04T03:20:40.694Z,5.32
2024-02-04T03:23:07.538Z,5.20
2024-02-04T03:25:34.345Z,5.33
2024-02-04T03:28:01.492Z,5.43
2024-02-04T03:30:28.419Z,5.35
2024-02-04T03:32:55.428Z,5.38
2024-02-04T03:35:22.916Z,5.42
2024-02-04T03:37:49.863Z,5.43
2024-02-04T03:40:16.636Z,4.96
2024-02-04T03:42:43.506Z,5.22
2024-02-04T03:45:10.436Z,5.03
2024-02-04T03:47:37.334Z,4.82
2024-02-04T03:50:05.080Z,4.89
2024-02-04T03:52:32.101Z,4.92
2024-02-04T03:55:00.751Z,4.67
2024-02-04T03:57:29.621Z,4.80
2024-02-04T03:59:56.338Z,4.86
2024-02-04T04:02:23.059Z,4.39
2024-02-04T04:04:50.070Z,4.23
2024-02-04T04:07:17.370Z,4.35
2024-02-04T04:09:44.248Z,4.60
2024-02-04T04:12:10.985Z,4.63
2024-02-04T04:14:37.852Z,4.72
2024-02-04T04:17:04.908Z,4.60
2024-02-04T04:19:34.286Z,4.79
2024-02-04T04:22:02.551Z,4.64
2024-02-04T04:24:29.320Z,4.41
2024-02-04T04:26:56.055Z,4.41
2024-02-04T04:29:22.846Z,4.45
2024-02-04T04:31:49.658Z,4.38
2024-02-04T04:34:16.521Z,4.30
2024-02-04T04:36:43.584Z,4.28
2024-02-04T04:39:10.260Z,4.43
2024-02-04T04:41:37.027Z,4.36
2024-02-04T04:44:04.246Z,4.30
2024-02-04T04:46:30.923Z,4.36
2024-02-04T04:48:59.313Z,4.27
2024-02-04T04:51:26.436Z,4.42
2024-02-04T04:53:53.228Z,4.51
2024-02-04T04:56:20.028Z,4.58
2024-02-04T04:58:46.797Z,4.58
2024-02-04T05:01:13.678Z,4.06
2024-02-04T05:03:41.509Z,4.06
2024-02-04T05:06:08.406Z,4.31
2024-02-04T05:08:35.132Z,4.37
2024-02-04T05:11:02.036Z,4.16
2024-02-04T05:13:28.791Z,4.34
2024-02-04T05:15:55.726Z,4.33
2024-02-04T05:18:22.526Z,4.28
2024-02-04T05:20:49.712Z,4.39
2024-02-04T05:23:16.405Z,4.45
2024-02-04T05:25:43.157Z,4.20
2024-02-04T05:28:10.295Z,4.33
2024-02-04T05:30:37.225Z,4.28
2024-02-04T05:33:04.220Z,4.08
2024-02-04T05:35:31.041Z,4.21
2024-02-04T05:37:57.717Z,4.03
2024-02-04T05:40:24.504Z,3.99
2024-02-04T05:42:52.491Z,3.81
2024-02-04T05:45:19.294Z,3.98
2024-02-04T05:47:46.072Z,4.09
2024-02-04T05:50:14.121Z,3.71
2024-02-04T05:52:40.917Z,4.04
2024-02-04T05:55:07.917Z,4.01
2024-02-04T05:57:34.765Z,3.84
2024-02-04T06:00:01.626Z,3.73
2024-02-04T06:02:28.419Z,3.34
2024-02-04T06:04:55.978Z,3.54
2024-02-04T06:07:22.911Z,3.53
2024-02-04T06:09:49.730Z,3.30
2024-02-04T06:12:16.490Z,3.59
2024-02-04T06:14:43.192Z,3.26
2024-02-04T06:17:11.274Z,3.62
2024-02-04T06:19:38.330Z,3.48
2024-02-04T06:22:05.494Z,3.66
2024-02-04T06:24:32.516Z,3.45
2024-02-04T06:26:59.470Z,3.56
2024-02-04T06:29:26.384Z,3.65
2024-02-04T06:31:53.097Z,3.44
2024-02-04T06:34:19.957Z,3.53
2024-02-04T06:36:46.877Z,3.35
2024-02-04T06:39:14.502Z,3.51
2024-02-04T06:41:41.216Z,3.38
2024-02-04T06:44:07.916Z,3.60
2024-02-04T06:46:34.831Z,3.17
2024-02-04T06:49:02.482Z,3.29
2024-02-04T06:51:29.648Z,3.28
2024-02-04T06:53:56.466Z,3.28
2024-02-04T06:56:23.302Z,3.24
2024-02-04T06:58:50.207Z,3.56
2024-02-04T07:01:16.948Z,3.60
2024-02-04T07:03:43.868Z,3.62
2024-02-04T07:06:10.670Z,3.45
2024-02-04T07:08:37.465Z,3.30
2024-02-04T07:11:04.660Z,3.52
2024-02-04T07:13:31.452Z,3.65
2024-02-04T07:15:59.019Z,3.58
2024-02-04T07:18:26.294Z,3.22
2024-02-04T07:20:53.183Z,3.57
2024-02-04T07:23:19.931Z,3.47
2024-02-04T07:25:46.868Z,3.26
2024-02-04T07:28:13.838Z,3.65
2024-02-04T07:30:40.717Z,3.42
2024-02-04T07:33:07.614Z,3.72
2024-02-04T07:35:34.433Z,3.38
2024-02-04T07:38:01.195Z,3.71
2024-02-04T07:40:29.148Z,3.57
2024-02-04T07:42:56.508Z,3.79
2024-02-04T07:45:23.319Z,3.72
2024-02-04T07:47:50.159Z,3.76
2024-02-04T07:50:17.081Z,3.80
2024-02-04T07:52:45.219Z,3.86
2024-02-04T07:55:12.515Z,3.58
2024-02-04T07:57:39.513Z,3.71
2024-02-04T08:00:07.636Z,3.84
2024-02-04T08:02:39.515Z,3.88
2024-02-04T08:05:06.773Z,4.08
2024-02-04T08:07:33.794Z,4.17
2024-02-04T08:10:00.810Z,4.37
2024-02-04T08:12:27.593Z,4.43
2024-02-04T08:14:54.362Z,4.43
2024-02-04T08:17:21.117Z,4.44
2024-02-04T08:19:48.683Z,4.73
2024-02-04T08:22:15.695Z,4.82
2024-02-04T08:24:42.681Z,4.87
2024-02-04T08:27:09.671Z,4.97
2024-02-04T08:29:36.437Z,4.91
2024-02-04T08:32:03.697Z,5.04
2024-02-04T08:34:30.596Z,5.14
2024-02-04T08:36:57.313Z,5.18
2024-02-04T08:39:24.348Z,5.17
2024-02-04T08:41:51.052Z,5.23
2024-02-04T08:44:26.779Z,5.22
2024-02-04T08:47:02.739Z,5.29
2024-02-04T08:49:30.821Z,5.40
2024-02-04T08:51:57.738Z,5.44
2024-02-04T08:54:24.539Z,5.53
2024-02-04T08:56:51.441Z,5.60
2024-02-04T08:59:18.175Z,5.62
2024-02-04T09:01:45.152Z,5.75
2024-02-04T09:04:11.948Z,5.95
2024-02-04T09:06:38.862Z,5.99
2024-02-04T09:09:05.854Z,6.16
2024-02-04T09:11:32.592Z,6.28
2024-02-04T09:13:59.297Z,6.43
2024-02-04T09:16:26.208Z,6.51
2024-02-04T09:18:53.014Z,6.63
2024-02-04T09:21:20.083Z,6.74
2024-02-04T09:23:47.478Z,6.86
2024-02-04T09:26:18.969Z,6.95
2024-02-04T09:28:46.697Z,7.13
2024-02-04T09:31:13.714Z,7.19
2024-02-04T09:33:41.919Z,7.19
2024-02-04T09:36:09.228Z,7.09
2024-02-04T09:38:36.118Z,7.06
2024-02-04T09:41:06.784Z,7.28
2024-02-04T09:43:34.377Z,7.29
2024-02-04T09:46:02.048Z,7.20
2024-02-04T09:48:34.161Z,7.17
2024-02-04T09:51:01.390Z,7.15
2024-02-04T09:53:41.635Z,7.19
2024-02-04T09:56:10.205Z,7.21
2024-02-04T09:58:37.265Z,7.22
2024-02-04T10:01:05.832Z,7.49
2024-02-04T10:03:33.001Z,7.52
2024-02-04T10:05:59.961Z,7.59
2024-02-04T10:08:27.394Z,7.67
2024-02-04T10:10:55.948Z,7.74
2024-02-04T10:13:23.744Z,7.74
2024-02-04T10:15:52.763Z,7.93
2024-02-04T10:18:19.610Z,8.05
2024-02-04T10:20:46.383Z,8.08
2024-02-04T10:23:13.360Z,8.14
2024-02-04T10:25:40.434Z,8.15
2024-02-04T10:28:07.611Z,8.09
2024-02-04T10:30:35.334Z,8.13
2024-02-04T10:33:02.062Z,8.12
2024-02-04T10:35:28.809Z,8.13
2024-02-04T10:37:55.536Z,8.12
2024-02-04T10:40:22.517Z,8.09
2024-02-04T10:42:51.839Z,8.08
2024-02-04T10:45:19.398Z,8.25
2024-02-04T10:47:56.704Z,8.36
2024-02-04T10:50:26.591Z,8.55
2024-02-04T10:52:54.298Z,8.68
2024-02-04T10:55:28.989Z,8.75
2024-02-04T10:57:56.629Z,9.15
2024-02-04T11:00:23.966Z,9.32
2024-02-04T11:02:52.613Z,9.51
2024-02-04T11:05:20.548Z,9.51
2024-02-04T11:07:48.193Z,9.75
2024-02-04T11:10:15.942Z,9.72
2024-02-04T11:12:43.818Z,9.92
2024-02-04T11:15:13.133Z,10.16
2024-02-04T11:18:18.391Z,10.26
2024-02-04T11:20:55.468Z,10.50
2024-02-04T11:23:38.270Z,10.45
2024-02-04T11:26:06.096Z,10.54
2024-02-04T11:28:34.246Z,10.81
2024-02-04T11:31:01.531Z,10.84
2024-02-04T11:33:29.398Z,10.87
2024-02-04T11:36:13.406Z,11.07
2024-02-04T11:38:41.313Z,11.12
2024-02-04T11:41:09.393Z,11.23
2024-02-04T11:43:38.918Z,11.27
2024-02-04T11:46:06.864Z,11.34
2024-02-04T11:48:36.266Z,11.40
2024-02-04T11:51:05.697Z,11.39
2024-02-04T11:53:35.827Z,11.54
2024-02-04T11:56:04.388Z,11.55
2024-02-04T11:58:33.073Z,11.66
2024-02-04T12:01:00.272Z,11.67
2024-02-04T12:03:35.003Z,11.68
2024-02-04T12:06:03.646Z,11.69
2024-02-04T12:08:33.476Z,11.66
2024-02-04T12:11:01.489Z,11.59
2024-02-04T12:13:29.924Z,11.76
2024-02-04T12:15:56.956Z,11.93
2024-02-04T12:18:24.088Z,12.01
2024-02-04T12:20:51.817Z,11.92
2024-02-04T12:23:24.754Z,12.24
2024-02-04T12:25:51.873Z,12.15
2024-02-04T12:28:20.899Z,12.14
2024-02-04T12:30:59.918Z,12.32
2024-02-04T12:33:27.090Z,12.57
2024-02-04T12:35:57.117Z,12.58
2024-02-04T12:38:24.159Z,12.55
2024-02-04T12:40:51.807Z,12.60
2024-02-04T12:43:18.671Z,12.70
2024-02-04T12:45:45.613Z,12.81
2024-02-04T12:48:16.962Z,12.74
2024-02-04T12:50:43.733Z,13.04
2024-02-04T12:53:14.462Z,13.22
2024-02-04T12:55:41.533Z,13.35
2024-02-04T12:58:10.366Z,13.48
2024-02-04T13:00:38.534Z,13.49
2024-02-04T13:03:07.141Z,13.48
2024-02-04T13:05:34.528Z,13.54
2024-02-04T13:08:03.703Z,13.34
2024-02-04T13:10:32.591Z,13.21
2024-02-04T13:13:10.231Z,12.89
2024-02-04T13:15:42.563Z,12.64
2024-02-04T13:18:11.793Z,12.47
2024-02-04T13:20:39.598Z,12.56
2024-02-04T13:23:06.998Z,13.02
2024-02-04T13:25:34.614Z,13.43
2024-02-04T13:28:02.497Z,13.83
2024-02-04T13:30:29.465Z,14.12
2024-02-04T13:32:57.899Z,14.06
2024-02-04T13:35:25.422Z,13.82
2024-02-04T13:37:53.455Z,13.52
2024-02-04T13:40:21.566Z,13.34
2024-02-04T13:42:49.380Z,13.31
2024-02-04T13:45:16.485Z,13.72
2024-02-04T13:47:43.921Z,13.61
2024-02-04T13:50:12.273Z,13.49
2024-02-04T13:52:40.177Z,13.86
2024-02-04T13:55:10.794Z,14.04
2024-02-04T13:57:37.989Z,14.03
2024-02-04T14:00:07.237Z,13.92
2024-02-04T14:02:34.126Z,13.91
2024-02-04T14:05:01.639Z,14.14
2024-02-04T14:07:28.792Z,14.38
2024-02-04T14:09:56.114Z,14.45
2024-02-04T14:12:23.198Z,14.78
2024-02-04T14:14:49.987Z,14.95
2024-02-04T14:17:16.973Z,14.88
2024-02-04T14:19:46.495Z,14.87
2024-02-04T14:22:13.527Z,14.77
2024-02-04T14:24:40.380Z,14.68
2024-02-04T14:27:07.393Z,14.52
2024-02-04T14:29:34.267Z,14.36
2024-02-04T14:32:01.670Z,14.22
2024-02-04T14:34:29.534Z,14.03
2024-02-04T14:36:56.639Z,14.04
2024-02-04T14:39:23.524Z,14.01
2024-02-04T14:41:50.297Z,14.09
2024-02-04T14:44:16.943Z,14.16
2024-02-04T14:46:44.018Z,13.95
2024-02-04T14:49:10.964Z,13.98
2024-02-04T14:51:40.744Z,13.98
2024-02-04T14:54:10.690Z,13.80
2024-02-04T14:56:41.960Z,13.62
2024-02-04T14:59:21.334Z,13.39
2024-02-04T15:01:51.508Z,13.14
2024-02-04T15:04:19.756Z,12.86
2024-02-04T15:06:47.213Z,12.64
2024-02-04T15:09:15.870Z,12.39
2024-02-04T15:11:44.258Z,12.42
2024-02-04T15:14:11.312Z,12.25
2024-02-04T15:16:41.018Z,12.07
2024-02-04T15:19:09.031Z,11.97
2024-02-04T15:21:36.821Z,11.88
2024-02-04T15:24:07.435Z,11.77
2024-02-04T15:26:35.735Z,11.66
2024-02-04T15:29:06.021Z,11.60
2024-02-04T15:31:34.801Z,11.56
2024-02-04T15:34:03.809Z,11.63
2024-02-04T15:36:33.410Z,11.70
2024-02-04T15:39:00.187Z,11.78
2024-02-04T15:41:26.917Z,11.66
2024-02-04T15:43:53.701Z,11.57
2024-02-04T15:46:21.363Z,11.46
2024-02-04T15:48:53.128Z,11.42
2024-02-04T15:51:20.752Z,11.27
2024-02-04T15:53:47.793Z,11.24
2024-02-04T15:56:17.657Z,11.34
2024-02-04T15:58:44.606Z,11.28
2024-02-04T16:01:14.454Z,11.10
2024-02-04T16:03:42.695Z,11.08
2024-02-04T16:06:10.244Z,11.02
2024-02-04T16:08:39.320Z,10.80
2024-02-04T16:11:10.003Z,10.65
2024-02-04T16:13:39.356Z,10.59
2024-02-04T16:16:09.785Z,10.53
2024-02-04T16:18:36.952Z,10.55
2024-02-04T16:21:04.087Z,10.42
2024-02-04T16:23:30.993Z,10.41
2024-02-04T16:25:58.678Z,10.23
2024-02-04T16:28:25.690Z,10.02
2024-02-04T16:30:52.429Z,10.04
2024-02-04T16:33:19.330Z,10.01
2024-02-04T16:35:46.089Z,9.99
2024-02-04T16:38:13.124Z,9.88
2024-02-04T16:40:43.833Z,9.65
2024-02-04T16:43:10.712Z,9.62
2024-02-04T16:45:37.580Z,9.66
2024-02-04T16:48:04.790Z,9.59
2024-02-04T16:50:31.625Z,9.50
2024-02-04T16:52:58.566Z,9.39
2024-02-04T16:55:25.341Z,9.44
2024-02-04T16:57:52.157Z,9.41
2024-02-04T17:00:19.103Z,9.29
2024-02-04T17:02:46.086Z,9.25
2024-02-04T17:05:13.448Z,9.32
2024-02-04T17:07:42.344Z,9.27
2024-02-04T17:10:10.718Z,9.37
2024-02-04T17:12:37.864Z,9.29
2024-02-04T17:15:05.873Z,9.05
2024-02-04T17:17:34.534Z,9.17
2024-02-04T17:20:16.979Z,9.20
2024-02-04T17:22:45.650Z,9.00
2024-02-04T17:25:19.446Z,8.91
2024-02-04T17:27:48.140Z,8.91
2024-02-04T17:30:18.160Z,8.96
2024-02-04T17:32:46.455Z,8.94
2024-02-04T17:35:14.978Z,8.95
2024-02-04T17:37:42.185Z,8.61
2024-02-04T17:40:10.589Z,8.57
2024-02-04T17:42:37.872Z,8.50
2024-02-04T17:45:07.908Z,8.48
2024-02-04T17:47:36.118Z,8.51
2024-02-04T17:50:03.519Z,8.48
2024-02-04T17:52:30.460Z,8.62
2024-02-04T17:54:57.265Z,8.62
2024-02-04T17:57:24.397Z,8.50
2024-02-04T17:59:51.767Z,8.56
2024-02-04T18:02:27.813Z,8.63
2024-02-04T18:05:02.108Z,8.67
2024-02-04T18:07:29.057Z,8.59
2024-02-04T18:09:55.864Z,8.50
2024-02-04T18:12:22.789Z,8.24
2024-02-04T18:14:51.104Z,8.40
2024-02-04T18:17:17.943Z,8.28
2024-02-04T18:19:44.831Z,8.22
2024-02-04T18:22:11.673Z,8.28
2024-02-04T18:24:39.625Z,8.01
2024-02-04T18:27:06.910Z,8.16
2024-02-04T18:29:33.789Z,7.94
2024-02-04T18:32:00.533Z,7.96
2024-02-04T18:34:27.537Z,8.03
2024-02-04T18:36:54.562Z,7.86
2024-02-04T18:39:21.283Z,7.99
2024-02-04T18:41:48.094Z,8.12
2024-02-04T18:44:16.434Z,8.09
2024-02-04T18:46:43.934Z,8.00
2024-02-04T18:49:11.703Z,8.02
2024-02-04T18:51:44.127Z,7.79
2024-02-04T18:54:11.104Z,7.92
2024-02-04T18:56:45.829Z,7.76
2024-02-04T18:59:12.670Z,7.93
2024-02-04T19:01:40.578Z,7.69
2024-02-04T19:04:08.015Z,7.40
2024-02-04T19:06:35.913Z,7.57
2024-02-04T19:09:04.406Z,7.63
2024-02-04T19:11:32.935Z,7.63
2024-02-04T19:14:00.845Z,7.52
2024-02-04T19:16:27.547Z,7.66
2024-02-04T19:18:55.677Z,7.46
2024-02-04T19:21:23.061Z,7.44
2024-02-04T19:23:49.844Z,7.47
2024-02-04T19:26:18.257Z,7.49
2024-02-04T19:28:45.005Z,7.46
2024-02-04T19:31:12.348Z,7.51
2024-02-04T19:33:39.600Z,7.59
2024-02-04T19:36:07.110Z,7.25
2024-02-04T19:38:34.160Z,7.40
2024-02-04T19:41:01.156Z,7.23
2024-02-04T19:43:31.407Z,7.23
2024-02-04T19:45:59.697Z,7.07
2024-02-04T19:48:27.915Z,7.27
2024-02-04T19:50:55.095Z,7.23
2024-02-04T19:53:22.040Z,7.00
2024-02-04T19:55:49.449Z,7.11
2024-02-04T19:58:16.341Z,7.16
2024-02-04T20:00:43.566Z,7.27
2024-02-04T20:03:10.704Z,7.09
2024-02-04T20:05:37.720Z,7.09
2024-02-04T20:08:05.024Z,7.12
2024-02-04T20:10:32.957Z,7.23
2024-02-04T20:12:59.957Z,7.15
2024-02-04T20:15:29.676Z,7.23
2024-02-04T20:17:58.527Z,7.14
2024-02-04T20:20:28.088Z,7.20
2024-02-04T20:22:57.242Z,7.17
2024-02-04T20:25:29.229Z,7.11
2024-02-04T20:27:57.592Z,7.07
2024-02-04T20:30:30.220Z,6.99
2024-02-04T20:32:58.297Z,6.87
2024-02-04T20:35:28.986Z,6.96
2024-02-04T20:38:01.130Z,6.93
2024-02-04T20:40:29.352Z,6.77
2024-02-04T20:42:56.622Z,6.82
2024-02-04T20:45:23.580Z,6.95
2024-02-04T20:47:50.805Z,6.94
2024-02-04T20:50:18.287Z,6.72
2024-02-04T20:52:45.601Z,6.81
2024-02-04T20:55:12.733Z,6.70
2024-02-04T20:57:40.207Z,6.35
2024-02-04T21:00:08.629Z,6.64
2024-02-04T21:02:36.374Z,6.71
2024-02-04T21:05:03.839Z,6.80
2024-02-04T21:07:31.129Z,6.43
2024-02-04T21:09:58.246Z,6.62
2024-02-04T21:12:25.229Z,6.55
2024-02-04T21:14:52.381Z,6.61
2024-02-04T21:17:21.541Z,6.29
2024-02-04T21:19:50.558Z,6.48
2024-02-04T21:22:17.895Z,6.54
2024-02-04T21:24:45.530Z,6.37
2024-02-04T21:27:12.336Z,6.27
2024-02-04T21:29:39.265Z,6.43
2024-02-04T21:32:06.632Z,6.23
2024-02-04T21:34:34.019Z,6.44
2024-02-04T21:37:01.019Z,6.44
2024-02-04T21:39:27.889Z,6.51
2024-02-04T21:41:55.480Z,6.52
2024-02-04T21:44:22.400Z,6.40
2024-02-04T21:46:49.366Z,6.33
2024-02-04T21:49:16.639Z,6.22
2024-02-04T21:51:43.711Z,6.10
2024-02-04T21:54:10.467Z,6.26
2024-02-04T21:56:37.608Z,6.20
2024-02-04T21:59:04.557Z,6.32
2024-02-04T22:01:31.385Z,6.05
2024-02-04T22:03:59.594Z,6.16
2024-02-04T22:06:26.823Z,6.11
2024-02-04T22:08:53.582Z,6.02
2024-02-04T22:11:20.534Z,6.13
2024-02-04T22:13:47.652Z,6.14
2024-02-04T22:16:14.535Z,6.24
2024-02-04T22:18:41.544Z,6.27
2024-02-04T22:21:08.725Z,6.22
2024-02-04T22:23:36.092Z,6.06
2024-02-04T22:26:02.874Z,6.14
2024-02-04T22:28:29.612Z,6.01
2024-02-04T22:30:56.321Z,5.88
2024-02-04T22:33:23.122Z,5.95
2024-02-04T22:35:49.842Z,6.07
2024-02-04T22:38:16.616Z,6.06
2024-02-04T22:40:43.277Z,5.93
2024-02-04T22:43:10.451Z,5.77
2024-02-04T22:45:37.962Z,5.92
2024-02-04T22:48:06.794Z,5.94
2024-02-04T22:50:33.815Z,6.01
2024-02-04T22:53:00.775Z,5.85
2024-02-04T22:55:27.651Z,5.99
2024-02-04T22:57:54.561Z,5.98
2024-02-04T23:00:30.651Z,5.58
2024-02-04T23:02:59.961Z,5.79
2024-02-04T23:05:30.925Z,5.91
2024-02-04T23:07:59.760Z,5.95
2024-02-04T23:10:28.014Z,5.95
2024-02-04T23:12:56.668Z,5.49
2024-02-04T23:15:23.510Z,5.52
2024-02-04T23:17:53.644Z,5.41
2024-02-04T23:20:21.113Z,5.54
2024-02-04T23:22:48.330Z,5.44
2024-02-04T23:25:15.895Z,5.62
2024-02-04T23:27:42.914Z,5.59
2024-02-04T23:30:10.316Z,5.57
2024-02-04T23:32:37.217Z,5.31
2024-02-04T23:35:05.757Z,5.23
2024-02-04T23:37:34.951Z,5.47
2024-02-04T23:40:02.313Z,5.38
2024-02-04T23:42:29.071Z,5.46
2024-02-04T23:44:56.751Z,5.44
2024-02-04T23:47:23.725Z,5.44
2024-02-04T23:49:50.633Z,5.57
2024-02-04T23:52:17.681Z,5.47
2024-02-04T23:54:45.034Z,5.65
2024-02-04T23:57:11.720Z,5.60
2024-02-04T23:59:38.717Z,5.66
